createdAt,value
2023-05-14T00:04:18.088Z,94
2023-05-14T00:14:18.081Z,94
2023-05-14T00:24:18.070Z,93.8
2023-05-14T00:34:18.016Z,94
2023-05-14T00:44:17.987Z,94.2
2023-05-14T00:54:17.948Z,94.6
2023-05-14T01:04:17.918Z,94.6
2023-05-14T01:14:17.884Z,95
2023-05-14T01:24:17.859Z,95.2
2023-05-14T01:34:17.835Z,95.4
2023-05-14T01:44:17.823Z,95.4
2023-05-14T01:54:17.781Z,95.8
2023-05-14T02:04:17.739Z,95.8
2023-05-14T02:14:17.719Z,95.8
2023-05-14T02:24:17.692Z,96.2
2023-05-14T02:34:17.671Z,96.2
2023-05-14T02:44:17.627Z,96.2
2023-05-14T02:54:17.611Z,96.4
2023-05-14T03:04:17.577Z,96.4
2023-05-14T03:14:17.554Z,96.4
2023-05-14T03:24:17.529Z,96.6
2023-05-14T03:34:17.512Z,96.6
2023-05-14T03:44:17.478Z,96.6
2023-05-14T03:54:17.453Z,96.8
2023-05-14T04:04:17.433Z,96.8
2023-05-14T04:14:17.396Z,97
2023-05-14T04:24:17.360Z,97
2023-05-14T04:34:17.335Z,97
2023-05-14T04:44:17.312Z,97
2023-05-14T04:54:17.306Z,96.8
2023-05-14T05:04:17.271Z,97
2023-05-14T05:14:17.232Z,97.4
2023-05-14T05:24:17.205Z,97
2023-05-14T05:34:17.182Z,97
2023-05-14T05:44:17.207Z,96.8
2023-05-14T05:54:17.124Z,95.4
2023-05-14T06:04:17.090Z,91.2
2023-05-14T06:14:17.099Z,87.4
2023-05-14T06:24:17.043Z,85.4
2023-05-14T06:34:16.999Z,82.8
2023-05-14T06:44:17.003Z,81.8
2023-05-14T06:54:16.964Z,80.4
2023-05-14T07:04:16.924Z,78.2
2023-05-14T07:14:16.889Z,77.4
2023-05-14T07:24:16.840Z,75.2
2023-05-14T07:34:16.826Z,74.6
2023-05-14T07:44:16.783Z,72.6
2023-05-14T07:54:16.761Z,69.8
2023-05-14T08:04:16.729Z,68.6
2023-05-14T08:14:16.703Z,68.6
2023-05-14T08:24:16.648Z,64.4
2023-05-14T08:34:16.700Z,62.6
2023-05-14T08:44:16.602Z,62.2
2023-05-14T08:54:16.601Z,60.8
2023-05-14T09:04:16.518Z,60.8
2023-05-14T09:14:16.509Z,60.2
2023-05-14T09:24:16.458Z,60.8
2023-05-14T09:34:16.425Z,58.8
2023-05-14T09:44:16.388Z,57.8
2023-05-14T09:54:16.368Z,58.2
2023-05-14T10:04:16.345Z,56.6
2023-05-14T10:14:16.305Z,55.6
2023-05-14T10:24:16.284Z,54.6
2023-05-14T10:34:16.230Z,54.8
2023-05-14T10:44:16.203Z,54.8
2023-05-14T10:54:16.146Z,55.2
2023-05-14T11:04:16.118Z,54.4
2023-05-14T11:14:16.111Z,54
2023-05-14T11:24:16.068Z,54.6
2023-05-14T11:34:16.075Z,55.6
2023-05-14T11:44:15.992Z,55.4
2023-05-14T11:54:15.972Z,53.6
2023-05-14T12:04:15.984Z,51.6
2023-05-14T12:14:15.872Z,49.8
2023-05-14T12:24:15.848Z,47
2023-05-14T12:34:15.816Z,49.2
2023-05-14T12:44:15.775Z,43.4
2023-05-14T12:54:15.804Z,42
2023-05-14T13:04:15.721Z,42.6
2023-05-14T13:14:15.685Z,42.8
2023-05-14T13:24:15.638Z,40.6
2023-05-14T13:34:15.615Z,39.6
2023-05-14T13:44:15.686Z,38.2
2023-05-14T13:54:15.692Z,40.2
2023-05-14T14:04:15.519Z,44.2
2023-05-14T14:14:15.546Z,43
2023-05-14T14:24:15.610Z,41.4
2023-05-14T14:34:15.456Z,39.2
2023-05-14T14:44:15.367Z,39.6
2023-05-14T14:54:15.356Z,44.4
2023-05-14T15:04:15.318Z,43.8
2023-05-14T15:14:15.278Z,42.6
2023-05-14T15:24:15.224Z,41.4
2023-05-14T15:34:15.232Z,46.2
2023-05-14T15:44:15.209Z,48
2023-05-14T15:54:15.133Z,48.4
2023-05-14T16:04:15.088Z,48.2
2023-05-14T16:14:15.111Z,46.4
2023-05-14T16:24:15.049Z,44.6
2023-05-14T16:34:14.996Z,46.2
2023-05-14T16:44:14.945Z,46.6
2023-05-14T16:54:14.911Z,48.2
2023-05-14T17:04:14.875Z,49
2023-05-14T17:14:14.863Z,50.8
2023-05-14T17:24:14.867Z,52.2
2023-05-14T17:34:14.837Z,54.4
2023-05-14T17:44:14.759Z,54.6
2023-05-14T17:54:14.795Z,55.6
2023-05-14T18:04:14.708Z,55.4
2023-05-14T18:14:14.658Z,55.6
2023-05-14T18:24:14.631Z,59
2023-05-14T18:34:14.586Z,56.8
2023-05-14T18:44:14.560Z,58
2023-05-14T18:54:14.627Z,60.8
2023-05-14T19:04:14.491Z,63
2023-05-14T19:14:14.556Z,64.4
2023-05-14T19:24:14.550Z,66
2023-05-14T19:34:14.510Z,65.8
2023-05-14T19:44:14.469Z,67.4
2023-05-14T19:54:14.522Z,67.2
2023-05-14T20:04:14.434Z,68.2
2023-05-14T20:14:14.489Z,69.2
2023-05-14T20:24:14.197Z,70.8
2023-05-14T20:34:14.277Z,71.8
2023-05-14T20:44:14.327Z,73.4
2023-05-14T20:54:14.316Z,74.2
2023-05-14T21:04:14.332Z,74.8
2023-05-14T21:14:14.268Z,75.2
2023-05-14T21:24:14.208Z,76
2023-05-14T21:34:14.153Z,77
2023-05-14T21:44:14.149Z,78
2023-05-14T21:54:13.985Z,79
2023-05-14T22:04:13.930Z,79.6
2023-05-14T22:14:13.874Z,80.6
2023-05-14T22:24:13.809Z,80.6
2023-05-14T22:34:13.802Z,81.8
2023-05-14T22:44:13.771Z,81.8
2023-05-14T22:54:13.757Z,83.4
2023-05-14T23:04:13.676Z,84.8
2023-05-14T23:14:13.673Z,85.4
2023-05-14T23:24:13.631Z,86.6
2023-05-14T23:34:13.589Z,86.6
2023-05-14T23:44:13.584Z,86.8
2023-05-14T23:54:13.537Z,87.4
